createdAt,value
2018-02-13T00:01:26.134Z,99.90
2018-02-13T00:03:53.784Z,99.90
2018-02-13T00:06:21.500Z,99.90
2018-02-13T00:08:49.155Z,99.90
2018-02-13T00:11:17.570Z,99.90
2018-02-13T00:13:45.249Z,99.90
2018-02-13T00:16:12.910Z,99.90
2018-02-13T00:18:40.577Z,99.90
2018-02-13T00:21:08.255Z,99.90
2018-02-13T00:23:35.917Z,99.90
2018-02-13T00:26:03.581Z,99.90
2018-02-13T00:28:31.266Z,99.90
2018-02-13T00:30:58.910Z,99.90
2018-02-13T00:33:26.849Z,99.90
2018-02-13T00:35:54.533Z,99.90
2018-02-13T00:38:22.189Z,99.90
2018-02-13T00:40:49.849Z,99.90
2018-02-13T00:43:17.518Z,99.90
2018-02-13T00:45:45.167Z,99.90
2018-02-13T00:48:12.852Z,99.90
2018-02-13T00:50:40.495Z,99.90
2018-02-13T00:53:08.146Z,99.90
2018-02-13T00:55:35.809Z,99.90
2018-02-13T00:58:03.494Z,99.90
2018-02-13T01:00:31.134Z,99.90
2018-02-13T01:02:58.767Z,99.90
2018-02-13T01:05:26.444Z,99.90
2018-02-13T01:07:54.093Z,99.90
2018-02-13T01:10:21.737Z,99.90
2018-02-13T01:12:49.401Z,99.90
2018-02-13T01:15:17.073Z,99.90
2018-02-13T01:17:44.708Z,99.90
2018-02-13T01:20:12.429Z,99.90
2018-02-13T01:22:40.064Z,99.90
2018-02-13T01:25:07.713Z,99.90
2018-02-13T01:27:35.400Z,99.90
2018-02-13T01:30:03.062Z,99.90
2018-02-13T01:32:30.699Z,99.90
2018-02-13T01:34:58.363Z,99.90
2018-02-13T01:37:25.995Z,99.90
2018-02-13T01:39:53.668Z,99.90
2018-02-13T01:42:21.301Z,99.90
2018-02-13T01:44:48.949Z,99.90
2018-02-13T01:47:16.607Z,99.90
2018-02-13T01:49:44.254Z,99.90
2018-02-13T01:52:11.915Z,99.90
2018-02-13T01:54:39.615Z,99.90
2018-02-13T01:57:08.082Z,99.90
2018-02-13T01:59:35.748Z,99.90
2018-02-13T02:02:03.425Z,99.90
2018-02-13T02:04:31.090Z,99.90
2018-02-13T02:06:59.510Z,99.90
2018-02-13T02:09:27.209Z,99.90
2018-02-13T02:11:54.849Z,99.90
2018-02-13T02:14:22.483Z,99.90
2018-02-13T02:16:54.693Z,99.90
2018-02-13T02:19:22.333Z,99.90
2018-02-13T02:21:50.009Z,99.90
2018-02-13T02:24:17.652Z,99.90
2018-02-13T02:26:45.309Z,99.90
2018-02-13T02:29:12.948Z,99.90
2018-02-13T02:31:40.628Z,99.90
2018-02-13T02:34:08.274Z,99.90
2018-02-13T02:36:36.681Z,99.90
2018-02-13T02:39:04.333Z,99.90
2018-02-13T02:41:31.996Z,99.90
2018-02-13T02:43:59.668Z,99.90
2018-02-13T02:46:27.318Z,99.90
2018-02-13T02:48:54.953Z,99.90
2018-02-13T02:51:23.407Z,99.90
2018-02-13T02:53:51.073Z,99.90
2018-02-13T02:56:18.734Z,99.90
2018-02-13T02:58:47.502Z,99.90
2018-02-13T03:01:15.166Z,99.90
2018-02-13T03:03:42.819Z,99.90
2018-02-13T03:06:10.485Z,99.90
2018-02-13T03:08:38.108Z,99.90
2018-02-13T03:11:05.767Z,99.90
2018-02-13T03:13:33.400Z,99.90
2018-02-13T03:16:01.073Z,99.90
2018-02-13T03:18:29.481Z,99.90
2018-02-13T03:20:57.143Z,99.90
2018-02-13T03:23:24.783Z,99.90
2018-02-13T03:25:53.202Z,99.90
2018-02-13T03:28:20.881Z,99.90
2018-02-13T03:30:49.517Z,99.90
2018-02-13T03:33:17.226Z,99.90
2018-02-13T03:35:44.886Z,99.90
2018-02-13T03:38:12.533Z,99.90
2018-02-13T03:40:40.188Z,99.90
2018-02-13T03:43:07.829Z,99.90
2018-02-13T03:45:35.553Z,99.90
2018-02-13T03:48:03.211Z,99.90
2018-02-13T03:50:30.846Z,99.90
2018-02-13T03:52:58.513Z,99.90
2018-02-13T03:55:26.147Z,99.90
2018-02-13T03:57:53.780Z,99.90
2018-02-13T04:00:22.202Z,99.90
2018-02-13T04:02:49.882Z,99.90
2018-02-13T04:05:17.547Z,99.90
2018-02-13T04:07:45.175Z,99.90
2018-02-13T04:10:12.841Z,99.90
2018-02-13T04:12:40.481Z,99.90
2018-02-13T04:15:09.607Z,99.90
2018-02-13T04:17:37.287Z,99.90
2018-02-13T04:20:04.914Z,99.90
2018-02-13T04:22:32.581Z,99.90
2018-02-13T04:25:00.207Z,99.90
2018-02-13T04:27:27.878Z,99.90
2018-02-13T04:29:56.293Z,99.90
2018-02-13T04:32:23.934Z,99.90
2018-02-13T04:34:51.714Z,99.90
2018-02-13T04:37:19.369Z,99.90
2018-02-13T04:39:47.041Z,99.90
2018-02-13T04:42:14.691Z,99.90
2018-02-13T04:44:42.321Z,99.90
2018-02-13T04:47:09.991Z,99.90
2018-02-13T04:49:38.422Z,99.90
2018-02-13T04:52:06.076Z,99.90
2018-02-13T04:54:33.742Z,99.90
2018-02-13T04:57:01.424Z,99.90
2018-02-13T04:59:29.047Z,99.90
2018-02-13T05:01:56.688Z,99.90
2018-02-13T05:04:25.122Z,99.90
2018-02-13T05:06:52.783Z,99.90
2018-02-13T05:09:20.473Z,99.90
2018-02-13T05:11:48.121Z,99.90
2018-02-13T05:14:15.757Z,99.90
2018-02-13T05:16:43.527Z,99.90
2018-02-13T05:19:11.151Z,99.90
2018-02-13T05:21:38.787Z,99.90
2018-02-13T05:24:07.215Z,99.90
2018-02-13T05:26:34.880Z,99.90
2018-02-13T05:29:02.538Z,99.90
2018-02-13T05:31:30.186Z,99.90
2018-02-13T05:33:57.855Z,99.90
2018-02-13T05:36:25.504Z,99.90
2018-02-13T05:38:53.145Z,99.90
2018-02-13T05:41:21.586Z,99.90
2018-02-13T05:43:49.242Z,99.90
2018-02-13T05:46:16.898Z,99.90
2018-02-13T05:48:44.551Z,99.90
2018-02-13T05:51:12.231Z,99.90
2018-02-13T05:53:39.884Z,99.90
2018-02-13T05:56:07.521Z,99.90
2018-02-13T05:58:35.196Z,99.90
2018-02-13T06:01:02.845Z,99.90
2018-02-13T06:03:30.523Z,99.90
2018-02-13T06:05:58.198Z,99.90
2018-02-13T06:08:25.893Z,99.90
2018-02-13T06:10:53.555Z,99.90
2018-02-13T06:13:21.198Z,99.90
2018-02-13T06:15:48.867Z,99.90
2018-02-13T06:18:16.510Z,99.90
2018-02-13T06:20:44.173Z,99.90
2018-02-13T06:23:11.828Z,99.90
2018-02-13T06:25:39.516Z,99.90
2018-02-13T06:28:07.179Z,99.90
2018-02-13T06:30:34.834Z,99.90
2018-02-13T06:33:02.510Z,99.90
2018-02-13T06:35:30.169Z,99.90
2018-02-13T06:37:57.838Z,99.90
2018-02-13T06:40:25.486Z,99.90
2018-02-13T06:42:53.170Z,99.90
2018-02-13T06:45:21.559Z,99.90
2018-02-13T06:47:49.959Z,99.90
2018-02-13T06:50:17.630Z,99.90
2018-02-13T06:52:45.273Z,99.90
2018-02-13T06:55:12.979Z,99.90
2018-02-13T06:57:40.665Z,99.90
2018-02-13T07:00:08.345Z,99.90
2018-02-13T07:02:36.761Z,99.90
2018-02-13T07:05:04.433Z,99.90
2018-02-13T07:07:32.087Z,99.90
2018-02-13T07:09:59.731Z,99.90
2018-02-13T07:12:27.393Z,99.90
2018-02-13T07:14:55.023Z,99.90
2018-02-13T07:17:22.720Z,99.90
2018-02-13T07:19:50.369Z,99.90
2018-02-13T07:22:18.024Z,99.90
2018-02-13T07:24:46.518Z,99.90
2018-02-13T07:27:14.199Z,99.90
2018-02-13T07:29:41.875Z,99.90
2018-02-13T07:32:09.530Z,99.90
2018-02-13T07:34:37.276Z,99.90
2018-02-13T07:37:04.998Z,99.90
2018-02-13T07:39:32.658Z,99.90
2018-02-13T07:42:01.109Z,99.90
2018-02-13T07:44:28.778Z,99.90
2018-02-13T07:46:56.516Z,99.90
2018-02-13T07:49:24.157Z,99.90
2018-02-13T07:51:51.804Z,99.90
2018-02-13T07:54:20.241Z,99.90
2018-02-13T07:56:47.896Z,99.90
2018-02-13T07:59:15.572Z,99.90
2018-02-13T08:01:43.245Z,99.90
2018-02-13T08:04:11.026Z,99.90
2018-02-13T08:06:38.668Z,99.90
2018-02-13T08:09:06.323Z,99.90
2018-02-13T08:11:34.027Z,99.90
2018-02-13T08:14:02.441Z,99.90
2018-02-13T08:16:30.121Z,99.90
2018-02-13T08:18:57.769Z,99.90
2018-02-13T08:21:25.421Z,99.90
2018-02-13T08:23:53.098Z,99.90
2018-02-13T08:26:20.862Z,99.90
2018-02-13T08:28:48.562Z,99.90
2018-02-13T08:31:17.001Z,99.90
2018-02-13T08:33:44.656Z,99.90
2018-02-13T08:36:12.328Z,99.60
2018-02-13T08:38:39.981Z,99.70
2018-02-13T08:41:07.662Z,99.40
2018-02-13T08:43:35.347Z,99.30
2018-02-13T08:46:03.006Z,98.70
2018-02-13T08:48:30.673Z,98.20
2018-02-13T08:50:58.317Z,97.60
2018-02-13T08:53:25.984Z,97.10
2018-02-13T08:55:53.634Z,96.90
2018-02-13T08:58:21.315Z,96.70
2018-02-13T09:00:48.969Z,96.90
2018-02-13T09:03:16.624Z,96.90
2018-02-13T09:05:44.300Z,96.50
2018-02-13T09:08:11.947Z,96.20
2018-02-13T09:10:39.615Z,96.20
2018-02-13T09:13:07.273Z,96.00
2018-02-13T09:15:34.949Z,95.80
2018-02-13T09:18:02.607Z,95.50
2018-02-13T09:23:04.317Z,94.90
2018-02-13T09:25:31.960Z,94.10
2018-02-13T09:28:00.379Z,93.60
2018-02-13T09:30:28.054Z,93.60
2018-02-13T09:32:55.742Z,93.30
2018-02-13T09:35:23.413Z,92.90
2018-02-13T09:37:51.059Z,92.30
2018-02-13T09:40:18.775Z,91.30
2018-02-13T09:42:46.422Z,90.60
2018-02-13T09:45:14.829Z,89.30
2018-02-13T09:47:42.480Z,89.20
2018-02-13T09:50:10.127Z,85.10
2018-02-13T09:52:38.553Z,76.30
2018-02-13T09:55:06.215Z,76.30
2018-02-13T09:57:33.901Z,75.40
2018-02-13T10:00:01.546Z,70.80
2018-02-13T10:02:29.183Z,67.80
2018-02-13T10:04:56.855Z,64.80
2018-02-13T10:07:24.494Z,64.80
2018-02-13T10:09:52.136Z,59.40
2018-02-13T10:12:19.828Z,59.00
2018-02-13T10:14:47.461Z,58.50
2018-02-13T10:17:15.886Z,56.30
2018-02-13T10:19:43.537Z,56.30
2018-02-13T10:22:11.179Z,56.00
2018-02-13T10:24:38.857Z,55.90
2018-02-13T10:27:06.503Z,54.10
2018-02-13T10:29:34.182Z,53.50
2018-02-13T10:32:01.820Z,52.30
2018-02-13T10:34:30.253Z,48.70
2018-02-13T10:36:57.910Z,48.70
2018-02-13T10:39:25.599Z,49.40
2018-02-13T10:41:53.264Z,47.30
2018-02-13T10:46:56.333Z,48.40
2018-02-13T10:49:23.968Z,48.40
2018-02-13T10:51:51.597Z,47.80
2018-02-13T10:54:20.018Z,47.10
2018-02-13T10:56:47.674Z,47.10
2018-02-13T10:59:15.334Z,46.60
2018-02-13T11:04:16.963Z,45.00
2018-02-13T11:06:45.387Z,44.80
2018-02-13T11:09:13.097Z,44.80
2018-02-13T11:11:40.790Z,44.00
2018-02-13T11:14:08.429Z,43.10
2018-02-13T11:16:36.078Z,41.30
2018-02-13T11:19:03.790Z,40.20
2018-02-13T11:21:31.435Z,39.30
2018-02-13T11:23:59.843Z,39.00
2018-02-13T11:26:27.492Z,39.00
2018-02-13T11:28:55.121Z,38.50
2018-02-13T11:31:23.765Z,37.50
2018-02-13T11:33:52.175Z,37.60
2018-02-13T11:36:19.832Z,37.60
2018-02-13T11:38:47.489Z,37.00
2018-02-13T11:41:15.171Z,36.70
2018-02-13T11:43:43.594Z,35.90
2018-02-13T11:46:11.250Z,35.90
2018-02-13T11:48:38.911Z,35.00
2018-02-13T11:51:06.573Z,36.40
2018-02-13T11:53:34.257Z,36.80
2018-02-13T11:56:01.897Z,36.10
2018-02-13T11:58:30.472Z,35.10
2018-02-13T12:00:58.132Z,35.00
2018-02-13T12:03:25.761Z,35.40
2018-02-13T12:05:53.426Z,34.90
2018-02-13T12:08:21.829Z,35.20
2018-02-13T12:10:49.493Z,35.20
2018-02-13T12:13:17.125Z,35.20
2018-02-13T12:15:45.573Z,35.50
2018-02-13T12:18:13.243Z,35.50
2018-02-13T12:20:40.864Z,35.40
2018-02-13T12:23:08.522Z,35.20
2018-02-13T12:25:42.157Z,35.30
2018-02-13T12:28:09.831Z,35.60
2018-02-13T12:30:37.465Z,35.70
2018-02-13T12:33:05.109Z,34.70
2018-02-13T12:35:32.767Z,34.90
2018-02-13T12:38:00.405Z,35.40
2018-02-13T12:40:28.826Z,35.80
2018-02-13T12:42:56.520Z,35.70
2018-02-13T12:45:24.185Z,35.50
2018-02-13T12:47:51.831Z,35.90
2018-02-13T12:50:19.472Z,36.00
2018-02-13T12:52:47.128Z,36.10
2018-02-13T12:55:14.785Z,36.20
2018-02-13T12:57:42.423Z,36.30
2018-02-13T13:00:11.798Z,36.90
2018-02-13T13:02:39.472Z,36.90
2018-02-13T13:05:07.132Z,37.00
2018-02-13T13:07:34.767Z,36.30
2018-02-13T13:10:02.444Z,36.40
2018-02-13T13:12:30.094Z,36.30
2018-02-13T13:14:57.762Z,35.80
2018-02-13T13:17:25.387Z,36.10
2018-02-13T13:19:53.034Z,35.90
2018-02-13T13:22:20.699Z,36.50
2018-02-13T13:24:48.289Z,36.70
2018-02-13T13:27:15.868Z,37.20
2018-02-13T13:29:43.435Z,37.40
2018-02-13T13:32:11.026Z,37.00
2018-02-13T13:34:38.607Z,36.30
2018-02-13T13:37:06.195Z,35.60
2018-02-13T13:39:33.818Z,35.60
2018-02-13T13:42:02.130Z,35.10
2018-02-13T13:44:29.705Z,35.10
2018-02-13T13:46:57.270Z,34.90
2018-02-13T13:49:24.856Z,35.20
2018-02-13T13:51:52.409Z,35.90
2018-02-13T13:54:19.972Z,35.10
2018-02-13T13:56:47.546Z,35.70
2018-02-13T13:59:15.876Z,36.10
2018-02-13T14:01:43.422Z,36.10
2018-02-13T14:04:11.003Z,35.30
2018-02-13T14:06:38.580Z,34.80
2018-02-13T14:09:06.145Z,35.10
2018-02-13T14:11:33.744Z,35.40
2018-02-13T14:14:01.327Z,35.60
2018-02-13T14:16:28.906Z,36.00
2018-02-13T14:18:58.141Z,35.10
2018-02-13T14:21:26.465Z,35.70
2018-02-13T14:23:54.030Z,35.70
2018-02-13T14:26:21.621Z,35.80
2018-02-13T14:28:49.186Z,35.80
2018-02-13T14:31:16.748Z,35.80
2018-02-13T14:33:45.149Z,36.30
2018-02-13T14:36:12.700Z,36.30
2018-02-13T14:38:41.042Z,36.70
2018-02-13T14:41:08.638Z,36.70
2018-02-13T14:43:36.944Z,37.40
2018-02-13T14:46:05.564Z,37.30
2018-02-13T14:48:33.105Z,38.10
2018-02-13T14:51:00.657Z,38.00
2018-02-13T14:53:28.273Z,37.80
2018-02-13T14:55:55.828Z,37.90
2018-02-13T14:58:23.411Z,38.50
2018-02-13T15:00:50.977Z,38.10
2018-02-13T15:03:18.537Z,37.60
2018-02-13T15:05:46.145Z,37.70
2018-02-13T15:08:13.730Z,38.50
2018-02-13T15:10:42.109Z,39.80
2018-02-13T15:13:10.441Z,40.60
2018-02-13T15:15:38.032Z,40.90
2018-02-13T15:21:07.235Z,41.30
2018-02-13T15:23:34.789Z,40.70
2018-02-13T15:26:02.367Z,40.40
2018-02-13T15:28:29.945Z,40.40
2018-02-13T15:30:58.315Z,40.70
2018-02-13T15:33:25.877Z,40.60
2018-02-13T15:35:53.470Z,39.70
2018-02-13T15:38:21.079Z,39.80
2018-02-13T15:40:48.649Z,40.20
2018-02-13T15:43:16.219Z,40.40
2018-02-13T15:45:44.611Z,40.90
2018-02-13T15:48:12.175Z,40.60
2018-02-13T15:50:40.495Z,41.40
2018-02-13T15:53:08.067Z,41.40
2018-02-13T15:55:35.650Z,41.30
2018-02-13T15:58:03.222Z,41.20
2018-02-13T16:00:31.564Z,42.10
2018-02-13T16:02:59.118Z,42.10
2018-02-13T16:05:26.685Z,42.20
2018-02-13T16:07:54.262Z,42.20
2018-02-13T16:10:21.820Z,41.80
2018-02-13T16:12:49.398Z,41.40
2018-02-13T16:15:17.749Z,41.70
2018-02-13T16:17:45.310Z,41.70
2018-02-13T16:20:12.916Z,41.90
2018-02-13T16:22:40.478Z,42.20
2018-02-13T16:25:08.064Z,42.40
2018-02-13T16:27:35.626Z,42.20
2018-02-13T16:30:03.203Z,42.70
2018-02-13T16:32:30.764Z,43.00
2018-02-13T16:34:58.345Z,43.00
2018-02-13T16:37:25.928Z,43.00
2018-02-13T16:39:53.480Z,43.70
2018-02-13T16:42:21.842Z,44.00
2018-02-13T16:44:49.424Z,44.00
2018-02-13T16:47:17.786Z,44.60
2018-02-13T16:49:46.134Z,45.00
2018-02-13T16:52:13.723Z,44.90
2018-02-13T16:54:42.079Z,44.90
2018-02-13T16:57:09.629Z,44.90
2018-02-13T16:59:37.186Z,45.10
2018-02-13T17:02:04.771Z,45.60
2018-02-13T17:04:32.330Z,46.70
2018-02-13T17:06:59.942Z,47.50
2018-02-13T17:09:27.504Z,48.00
2018-02-13T17:11:55.115Z,48.60
2018-02-13T17:14:23.483Z,49.70
2018-02-13T17:16:51.049Z,50.20
2018-02-13T17:19:18.633Z,50.30
2018-02-13T17:21:46.971Z,51.00
2018-02-13T17:24:14.607Z,50.90
2018-02-13T17:26:42.193Z,51.30
2018-02-13T17:29:09.806Z,52.10
2018-02-13T17:31:37.414Z,52.80
2018-02-13T17:34:04.965Z,53.70
2018-02-13T17:36:32.533Z,54.00
2018-02-13T17:39:00.127Z,54.60
2018-02-13T17:41:28.476Z,54.70
2018-02-13T17:43:56.030Z,54.60
2018-02-13T17:46:23.600Z,54.60
2018-02-13T17:48:51.219Z,54.70
2018-02-13T17:51:18.787Z,55.00
2018-02-13T17:53:46.344Z,55.00
2018-02-13T17:56:13.938Z,55.40
2018-02-13T17:58:41.633Z,55.60
2018-02-13T18:01:09.974Z,56.20
2018-02-13T18:03:37.604Z,56.70
2018-02-13T18:06:05.327Z,56.70
2018-02-13T18:08:33.655Z,57.60
2018-02-13T18:11:01.233Z,57.60
2018-02-13T18:13:28.828Z,57.70
2018-02-13T18:15:56.429Z,57.90
2018-02-13T18:18:24.940Z,58.00
2018-02-13T18:20:52.527Z,58.40
2018-02-13T18:23:20.853Z,59.00
2018-02-13T18:25:48.457Z,59.00
2018-02-13T18:28:16.812Z,59.90
2018-02-13T18:30:44.378Z,59.90
2018-02-13T18:33:11.965Z,60.50
2018-02-13T18:35:39.582Z,60.90
2018-02-13T18:38:07.187Z,61.40
2018-02-13T18:40:35.532Z,62.20
2018-02-13T18:43:03.098Z,62.90
2018-02-13T18:45:30.677Z,62.00
2018-02-13T18:47:59.002Z,64.00
2018-02-13T18:50:26.581Z,63.90
2018-02-13T18:55:21.849Z,65.70
2018-02-13T18:57:50.177Z,68.80
2018-02-13T19:00:17.751Z,68.80
2018-02-13T19:02:45.334Z,69.60
2018-02-13T19:05:13.759Z,69.40
2018-02-13T19:07:41.341Z,69.40
2018-02-13T19:10:08.903Z,69.70
2018-02-13T19:12:36.500Z,70.70
2018-02-13T19:15:04.844Z,72.20
2018-02-13T19:17:32.446Z,72.10
2018-02-13T20:41:57.148Z,72.50
2018-02-13T20:44:25.568Z,91.60
2018-02-13T20:46:53.144Z,91.50
2018-02-13T20:49:20.716Z,91.00
2018-02-13T20:51:48.299Z,91.10
2018-02-13T20:54:15.859Z,90.90
2018-02-13T20:56:43.471Z,90.40
2018-02-13T20:59:11.078Z,90.30
2018-02-13T21:01:38.641Z,89.40
2018-02-13T21:04:06.255Z,88.60
2018-02-13T21:06:33.826Z,88.90
2018-02-13T21:09:01.386Z,89.70
2018-02-13T21:11:28.973Z,89.40
2018-02-13T21:13:56.558Z,89.60
2018-02-13T21:16:24.135Z,88.90
2018-02-13T21:18:52.485Z,89.20
2018-02-13T21:21:20.054Z,89.20
2018-02-13T21:23:48.422Z,89.20
2018-02-13T21:26:15.990Z,89.10
2018-02-13T21:28:43.581Z,89.50
2018-02-13T21:31:11.908Z,90.10
2018-02-13T21:33:39.489Z,90.10
2018-02-13T21:36:07.072Z,90.20
2018-02-13T21:38:35.441Z,90.40
2018-02-13T21:41:03.057Z,90.40
2018-02-13T21:43:30.642Z,90.10
2018-02-13T21:45:58.280Z,90.00
2018-02-13T21:48:25.858Z,90.00
2018-02-13T21:50:53.463Z,89.60
2018-02-13T21:53:21.051Z,89.30
2018-02-13T21:55:48.649Z,88.80
2018-02-13T21:58:16.253Z,88.40
2018-02-13T22:00:43.828Z,88.20
2018-02-13T22:03:11.404Z,88.40
2018-02-13T22:05:39.011Z,88.50
2018-02-13T22:08:07.354Z,89.20
2018-02-13T22:10:34.923Z,89.20
2018-02-13T22:13:02.559Z,89.60
2018-02-13T22:15:30.131Z,89.90
2018-02-13T22:17:57.728Z,90.20
2018-02-13T22:20:26.066Z,90.40
2018-02-13T22:22:53.666Z,90.40
2018-02-13T22:25:22.482Z,90.40
2018-02-13T22:27:50.090Z,90.40
2018-02-13T22:30:17.652Z,90.60
2018-02-13T22:32:45.204Z,90.70
2018-02-13T22:35:12.794Z,90.70
2018-02-13T22:37:41.135Z,91.10
2018-02-13T22:40:08.772Z,91.10
2018-02-13T22:42:36.360Z,91.50
2018-02-13T22:45:03.957Z,91.60
2018-02-13T22:47:32.297Z,92.00
2018-02-13T22:49:59.891Z,92.00
2018-02-13T22:52:28.258Z,92.80
2018-02-13T22:54:55.821Z,92.80
2018-02-13T22:57:23.400Z,93.80
2018-02-13T22:59:51.743Z,93.80
2018-02-13T23:02:19.347Z,93.80
2018-02-13T23:04:46.942Z,93.80
2018-02-13T23:07:15.286Z,93.40
2018-02-13T23:09:42.923Z,93.40
2018-02-13T23:12:11.291Z,93.60
2018-02-13T23:14:38.858Z,93.60
2018-02-13T23:17:06.482Z,93.60
2018-02-13T23:19:34.055Z,94.00
2018-02-13T23:22:01.703Z,94.20
2018-02-13T23:24:29.308Z,94.50
2018-02-13T23:26:56.887Z,94.60
2018-02-13T23:29:24.450Z,94.70
2018-02-13T23:31:52.060Z,94.80
2018-02-13T23:34:19.639Z,94.90
2018-02-13T23:36:47.236Z,95.10
2018-02-13T23:39:14.915Z,95.70
2018-02-13T23:41:42.518Z,96.10
2018-02-13T23:44:10.093Z,96.50
2018-02-13T23:46:38.444Z,96.90
2018-02-13T23:49:06.045Z,96.90
2018-02-13T23:51:34.385Z,97.00
2018-02-13T23:54:01.989Z,97.00
2018-02-13T23:56:29.561Z,97.00
2018-02-13T23:58:57.137Z,97.00
